sensor_id;sensor_type;location;lat;lon;timestamp;pressure;altitude;pressure_sealevel;temperature;humidity
11099;BME280;12223;42.650;23.364;2023-04-08T00:01:20;94816.19;;;6.33;95.11
11099;BME280;12223;42.650;23.364;2023-04-08T00:03:46;94810.13;;;6.33;94.71
11099;BME280;12223;42.650;23.364;2023-04-08T00:06:13;94813.16;;;6.30;94.95
11099;BME280;12223;42.650;23.364;2023-04-08T00:08:40;94819.94;;;6.18;96.23
11099;BME280;12223;42.650;23.364;2023-04-08T00:11:07;94824.00;;;6.27;96.40
11099;BME280;12223;42.650;23.364;2023-04-08T00:13:35;94822.66;;;6.31;96.78
11099;BME280;12223;42.650;23.364;2023-04-08T00:16:05;94821.22;;;6.28;97.73
11099;BME280;12223;42.650;23.364;2023-04-08T00:18:32;94822.31;;;6.13;98.42
11099;BME280;12223;42.650;23.364;2023-04-08T00:20:59;94828.34;;;6.07;99.54
11099;BME280;12223;42.650;23.364;2023-04-08T00:23:26;94816.75;;;6.01;99.51
11099;BME280;12223;42.650;23.364;2023-04-08T00:25:53;94821.22;;;6.00;99.65
11099;BME280;12223;42.650;23.364;2023-04-08T00:28:20;94820.59;;;5.98;98.45
11099;BME280;12223;42.650;23.364;2023-04-08T00:30:48;94816.28;;;5.91;99.16
11099;BME280;12223;42.650;23.364;2023-04-08T00:33:15;94821.41;;;5.78;100.00
11099;BME280;12223;42.650;23.364;2023-04-08T00:35:43;94825.22;;;5.54;100.00
11099;BME280;12223;42.650;23.364;2023-04-08T00:38:10;94822.94;;;5.51;100.00
11099;BME280;12223;42.650;23.364;2023-04-08T00:40:37;94819.09;;;5.47;100.00
11099;BME280;12223;42.650;23.364;2023-04-08T00:43:04;94819.84;;;5.41;100.00
11099;BME280;12223;42.650;23.364;2023-04-08T00:45:32;94814.47;;;5.28;100.00
11099;BME280;12223;42.650;23.364;2023-04-08T00:48:01;94821.97;;;5.31;100.00
11099;BME280;12223;42.650;23.364;2023-04-08T00:50:28;94836.94;;;5.37;100.00
11099;BME280;12223;42.650;23.364;2023-04-08T00:52:55;94832.75;;;5.06;100.00
11099;BME280;12223;42.650;23.364;2023-04-08T00:55:22;94829.28;;;4.84;100.00
11099;BME280;12223;42.650;23.364;2023-04-08T00:57:49;94830.19;;;4.77;100.00
11099;BME280;12223;42.650;23.364;2023-04-08T01:00:16;94833.63;;;4.77;100.00
11099;BME280;12223;42.650;23.364;2023-04-08T01:02:47;94826.91;;;4.90;100.00
11099;BME280;12223;42.650;23.364;2023-04-08T01:05:24;94819.31;;;4.95;100.00
11099;BME280;12223;42.650;23.364;2023-04-08T01:07:53;94830.50;;;5.03;100.00
11099;BME280;12223;42.650;23.364;2023-04-08T01:10:22;94824.31;;;4.90;100.00
11099;BME280;12223;42.650;23.364;2023-04-08T01:12:53;94833.38;;;5.08;100.00
11099;BME280;12223;42.650;23.364;2023-04-08T01:15:21;94833.38;;;5.08;100.00
11099;BME280;12223;42.650;23.364;2023-04-08T01:17:50;94834.03;;;5.32;100.00
11099;BME280;12223;42.650;23.364;2023-04-08T01:20:20;94834.00;;;5.46;100.00
11099;BME280;12223;42.650;23.364;2023-04-08T01:23:02;94833.72;;;5.56;100.00
11099;BME280;12223;42.650;23.364;2023-04-08T01:25:35;94826.91;;;5.61;100.00
11099;BME280;12223;42.650;23.364;2023-04-08T01:28:05;94830.19;;;5.70;100.00
11099;BME280;12223;42.650;23.364;2023-04-08T01:30:36;94825.75;;;5.71;100.00
11099;BME280;12223;42.650;23.364;2023-04-08T01:33:04;94829.25;;;5.78;100.00
11099;BME280;12223;42.650;23.364;2023-04-08T01:35:32;94824.47;;;5.81;100.00
11099;BME280;12223;42.650;23.364;2023-04-08T01:37:59;94813.47;;;5.71;100.00
11099;BME280;12223;42.650;23.364;2023-04-08T01:40:30;94821.56;;;5.76;100.00
11099;BME280;12223;42.650;23.364;2023-04-08T01:42:58;94841.53;;;5.77;100.00
11099;BME280;12223;42.650;23.364;2023-04-08T01:45:29;94831.44;;;5.74;100.00
11099;BME280;12223;42.650;23.364;2023-04-08T01:47:57;94834.66;;;5.76;100.00
11099;BME280;12223;42.650;23.364;2023-04-08T01:50:26;94830.88;;;5.79;100.00
11099;BME280;12223;42.650;23.364;2023-04-08T01:52:53;94836.38;;;5.84;100.00
11099;BME280;12223;42.650;23.364;2023-04-08T01:55:22;94832.75;;;5.85;100.00
11099;BME280;12223;42.650;23.364;2023-04-08T01:57:51;94840.88;;;5.90;100.00
11099;BME280;12223;42.650;23.364;2023-04-08T02:00:20;94837.00;;;5.86;100.00
11099;BME280;12223;42.650;23.364;2023-04-08T02:02:49;94842.25;;;5.86;100.00
11099;BME280;12223;42.650;23.364;2023-04-08T02:05:16;94844.56;;;5.95;100.00
11099;BME280;12223;42.650;23.364;2023-04-08T02:07:43;94847.31;;;5.87;99.54
11099;BME280;12223;42.650;23.364;2023-04-08T02:10:11;94853.28;;;5.81;98.27
11099;BME280;12223;42.650;23.364;2023-04-08T02:12:38;94851.03;;;5.78;98.27
11099;BME280;12223;42.650;23.364;2023-04-08T02:15:05;94854.16;;;5.67;96.64
11099;BME280;12223;42.650;23.364;2023-04-08T02:17:38;94853.38;;;5.52;99.88
11099;BME280;12223;42.650;23.364;2023-04-08T02:20:11;94832.88;;;5.34;97.71
11099;BME280;12223;42.650;23.364;2023-04-08T02:22:43;94838.91;;;5.35;97.19
11099;BME280;12223;42.650;23.364;2023-04-08T02:25:14;94862.16;;;5.44;96.01
11099;BME280;12223;42.650;23.364;2023-04-08T02:27:43;94846.94;;;5.33;96.17
11099;BME280;12223;42.650;23.364;2023-04-08T02:30:12;94856.59;;;5.33;96.15
11099;BME280;12223;42.650;23.364;2023-04-08T02:32:39;94839.84;;;5.27;95.51
11099;BME280;12223;42.650;23.364;2023-04-08T02:35:09;94845.06;;;5.27;96.25
11099;BME280;12223;42.650;23.364;2023-04-08T02:37:37;94855.38;;;5.29;96.06
11099;BME280;12223;42.650;23.364;2023-04-08T02:40:21;94852.84;;;5.20;97.27
11099;BME280;12223;42.650;23.364;2023-04-08T02:42:48;94848.91;;;5.10;99.36
11099;BME280;12223;42.650;23.364;2023-04-08T02:45:16;94841.25;;;5.08;100.00
11099;BME280;12223;42.650;23.364;2023-04-08T02:47:43;94848.09;;;5.09;100.00
11099;BME280;12223;42.650;23.364;2023-04-08T02:50:11;94843.50;;;5.11;100.00
11099;BME280;12223;42.650;23.364;2023-04-08T02:52:38;94851.59;;;5.16;100.00
11099;BME280;12223;42.650;23.364;2023-04-08T02:55:06;94839.59;;;5.07;100.00
11099;BME280;12223;42.650;23.364;2023-04-08T02:57:34;94849.63;;;5.18;100.00
11099;BME280;12223;42.650;23.364;2023-04-08T03:00:02;94854.38;;;5.30;99.25
11099;BME280;12223;42.650;23.364;2023-04-08T03:02:29;94850.38;;;5.34;99.01
11099;BME280;12223;42.650;23.364;2023-04-08T03:04:56;94855.25;;;5.37;97.98
11099;BME280;12223;42.650;23.364;2023-04-08T03:07:24;94848.94;;;5.31;97.79
11099;BME280;12223;42.650;23.364;2023-04-08T03:09:52;94860.75;;;5.42;97.88
11099;BME280;12223;42.650;23.364;2023-04-08T03:12:20;94855.69;;;5.40;97.92
11099;BME280;12223;42.650;23.364;2023-04-08T03:14:47;94850.75;;;5.31;97.51
11099;BME280;12223;42.650;23.364;2023-04-08T03:17:14;94854.78;;;5.48;96.35
11099;BME280;12223;42.650;23.364;2023-04-08T03:19:40;94850.84;;;5.58;94.97
11099;BME280;12223;42.650;23.364;2023-04-08T03:22:07;94855.78;;;5.68;93.57
11099;BME280;12223;42.650;23.364;2023-04-08T03:24:36;94852.84;;;5.78;93.41
11099;BME280;12223;42.650;23.364;2023-04-08T03:27:03;94859.88;;;5.77;93.07
11099;BME280;12223;42.650;23.364;2023-04-08T03:29:30;94858.88;;;5.78;91.95
11099;BME280;12223;42.650;23.364;2023-04-08T03:31:57;94856.66;;;5.75;92.39
11099;BME280;12223;42.650;23.364;2023-04-08T03:34:23;94860.22;;;5.89;91.97
11099;BME280;12223;42.650;23.364;2023-04-08T03:36:50;94858.94;;;5.85;93.33
11099;BME280;12223;42.650;23.364;2023-04-08T03:39:17;94855.59;;;5.91;94.60
11099;BME280;12223;42.650;23.364;2023-04-08T03:41:46;94825.16;;;5.69;94.44
11099;BME280;12223;42.650;23.364;2023-04-08T03:44:12;94838.75;;;5.79;94.51
11099;BME280;12223;42.650;23.364;2023-04-08T03:46:39;94859.03;;;5.91;93.24
11099;BME280;12223;42.650;23.364;2023-04-08T03:49:06;94861.28;;;5.94;94.36
11099;BME280;12223;42.650;23.364;2023-04-08T03:51:33;94868.56;;;5.78;93.42
11099;BME280;12223;42.650;23.364;2023-04-08T03:53:59;94853.91;;;5.62;92.52
11099;BME280;12223;42.650;23.364;2023-04-08T03:56:26;94856.88;;;5.59;93.12
11099;BME280;12223;42.650;23.364;2023-04-08T03:58:54;94855.44;;;5.35;94.43
11099;BME280;12223;42.650;23.364;2023-04-08T04:01:21;94854.63;;;5.35;96.32
11099;BME280;12223;42.650;23.364;2023-04-08T04:03:48;94865.75;;;5.22;98.29
11099;BME280;12223;42.650;23.364;2023-04-08T04:06:14;94838.44;;;5.10;99.57
11099;BME280;12223;42.650;23.364;2023-04-08T04:08:41;94851.13;;;5.28;100.00
11099;BME280;12223;42.650;23.364;2023-04-08T04:11:08;94851.84;;;5.21;100.00
11099;BME280;12223;42.650;23.364;2023-04-08T04:13:35;94852.75;;;5.29;100.00
11099;BME280;12223;42.650;23.364;2023-04-08T04:16:05;94857.97;;;5.29;100.00
11099;BME280;12223;42.650;23.364;2023-04-08T04:18:32;94853.91;;;5.26;100.00
11099;BME280;12223;42.650;23.364;2023-04-08T04:20:58;94826.41;;;5.15;100.00
11099;BME280;12223;42.650;23.364;2023-04-08T04:23:25;94867.97;;;5.40;100.00
11099;BME280;12223;42.650;23.364;2023-04-08T04:25:52;94866.56;;;5.37;100.00
11099;BME280;12223;42.650;23.364;2023-04-08T04:28:19;94876.81;;;5.39;100.00
11099;BME280;12223;42.650;23.364;2023-04-08T04:30:45;94871.31;;;5.34;100.00
11099;BME280;12223;42.650;23.364;2023-04-08T04:33:13;94870.56;;;5.18;100.00
11099;BME280;12223;42.650;23.364;2023-04-08T04:35:40;94872.00;;;5.06;100.00
11099;BME280;12223;42.650;23.364;2023-04-08T04:38:07;94858.50;;;4.88;100.00
11099;BME280;12223;42.650;23.364;2023-04-08T04:40:36;94869.34;;;4.85;100.00
11099;BME280;12223;42.650;23.364;2023-04-08T04:43:04;94859.34;;;4.74;100.00
11099;BME280;12223;42.650;23.364;2023-04-08T04:45:33;94861.31;;;4.87;100.00
11099;BME280;12223;42.650;23.364;2023-04-08T04:47:59;94866.16;;;4.90;100.00
11099;BME280;12223;42.650;23.364;2023-04-08T04:50:29;94869.94;;;4.87;100.00
11099;BME280;12223;42.650;23.364;2023-04-08T04:52:55;94862.47;;;4.84;100.00
11099;BME280;12223;42.650;23.364;2023-04-08T04:55:23;94864.63;;;4.95;100.00
11099;BME280;12223;42.650;23.364;2023-04-08T04:57:50;94855.06;;;5.02;100.00
11099;BME280;12223;42.650;23.364;2023-04-08T05:00:16;94873.06;;;5.26;100.00
11099;BME280;12223;42.650;23.364;2023-04-08T05:02:43;94875.47;;;5.43;100.00
11099;BME280;12223;42.650;23.364;2023-04-08T05:05:10;94868.84;;;5.47;100.00
11099;BME280;12223;42.650;23.364;2023-04-08T05:07:39;94878.16;;;5.71;100.00
11099;BME280;12223;42.650;23.364;2023-04-08T05:10:06;94869.13;;;5.73;100.00
11099;BME280;12223;42.650;23.364;2023-04-08T05:12:33;94874.13;;;5.89;100.00
11099;BME280;12223;42.650;23.364;2023-04-08T05:15:02;94875.41;;;5.93;100.00
11099;BME280;12223;42.650;23.364;2023-04-08T05:17:29;94878.25;;;5.98;100.00
11099;BME280;12223;42.650;23.364;2023-04-08T05:19:55;94850.47;;;6.04;99.98
11099;BME280;12223;42.650;23.364;2023-04-08T05:22:22;94875.47;;;6.28;99.07
11099;BME280;12223;42.650;23.364;2023-04-08T05:24:52;94872.94;;;6.41;98.18
11099;BME280;12223;42.650;23.364;2023-04-08T05:27:18;94851.72;;;6.36;96.98
11099;BME280;12223;42.650;23.364;2023-04-08T05:29:46;94877.19;;;6.70;95.75
11099;BME280;12223;42.650;23.364;2023-04-08T05:32:13;94884.38;;;6.89;93.02
11099;BME280;12223;42.650;23.364;2023-04-08T05:34:41;94876.28;;;6.91;90.90
11099;BME280;12223;42.650;23.364;2023-04-08T05:37:08;94863.16;;;6.91;88.78
11099;BME280;12223;42.650;23.364;2023-04-08T05:39:35;94854.09;;;6.93;88.56
11099;BME280;12223;42.650;23.364;2023-04-08T05:42:03;94878.97;;;7.04;89.74
11099;BME280;12223;42.650;23.364;2023-04-08T05:44:30;94866.53;;;7.19;88.89
11099;BME280;12223;42.650;23.364;2023-04-08T05:46:56;94877.53;;;7.42;88.55
11099;BME280;12223;42.650;23.364;2023-04-08T05:49:24;94873.66;;;7.32;85.66
11099;BME280;12223;42.650;23.364;2023-04-08T05:51:51;94871.97;;;7.17;84.69
11099;BME280;12223;42.650;23.364;2023-04-08T05:54:18;94873.13;;;7.08;84.78
11099;BME280;12223;42.650;23.364;2023-04-08T05:56:56;94878.53;;;6.94;85.63
11099;BME280;12223;42.650;23.364;2023-04-08T05:59:24;94875.56;;;7.10;85.37
11099;BME280;12223;42.650;23.364;2023-04-08T06:01:51;94876.78;;;7.07;84.84
11099;BME280;12223;42.650;23.364;2023-04-08T06:04:19;94877.66;;;6.80;85.89
11099;BME280;12223;42.650;23.364;2023-04-08T06:06:46;94874.22;;;6.79;88.24
11099;BME280;12223;42.650;23.364;2023-04-08T06:09:13;94876.75;;;6.66;89.12
11099;BME280;12223;42.650;23.364;2023-04-08T06:11:39;94885.66;;;6.72;87.58
11099;BME280;12223;42.650;23.364;2023-04-08T06:14:06;94870.97;;;6.77;87.77
11099;BME280;12223;42.650;23.364;2023-04-08T06:16:37;94874.44;;;6.84;87.38
11099;BME280;12223;42.650;23.364;2023-04-08T06:19:09;94861.28;;;6.78;87.54
11099;BME280;12223;42.650;23.364;2023-04-08T06:21:40;94877.03;;;6.78;86.15
11099;BME280;12223;42.650;23.364;2023-04-08T06:24:07;94864.09;;;6.42;88.29
11099;BME280;12223;42.650;23.364;2023-04-08T06:26:33;94876.47;;;6.82;89.35
11099;BME280;12223;42.650;23.364;2023-04-08T06:29:01;94844.34;;;6.80;89.70
11099;BME280;12223;42.650;23.364;2023-04-08T06:31:31;94831.09;;;6.95;89.53
11099;BME280;12223;42.650;23.364;2023-04-08T06:38:04;94862.22;;;7.05;94.47
11099;BME280;12223;42.650;23.364;2023-04-08T06:40:49;94881.47;;;7.18;93.94
11099;BME280;12223;42.650;23.364;2023-04-08T06:43:58;94866.38;;;7.34;93.14
11099;BME280;12223;42.650;23.364;2023-04-08T06:46:34;94771.91;;;6.52;93.40
11099;BME280;12223;42.650;23.364;2023-04-08T06:56:04;94753.88;;;6.35;92.51
11099;BME280;12223;42.650;23.364;2023-04-08T07:00:14;94640.47;;;5.30;96.29
11099;BME280;12223;42.650;23.364;2023-04-08T07:02:38;94834.03;;;6.44;98.44
11099;BME280;12223;42.650;23.364;2023-04-08T07:05:19;94875.69;;;7.36;96.33
11099;BME280;12223;42.650;23.364;2023-04-08T07:08:15;94799.84;;;6.66;91.87
11099;BME280;12223;42.650;23.364;2023-04-08T07:14:15;94583.38;;;5.47;89.68
11099;BME280;12223;42.650;23.364;2023-04-08T07:17:03;94861.41;;;7.58;89.57
11099;BME280;12223;42.650;23.364;2023-04-08T07:19:30;94885.09;;;7.85;87.14
11099;BME280;12223;42.650;23.364;2023-04-08T07:21:57;94886.72;;;7.79;87.52
11099;BME280;12223;42.650;23.364;2023-04-08T07:24:23;94890.19;;;7.86;87.94
11099;BME280;12223;42.650;23.364;2023-04-08T07:26:50;94888.19;;;7.95;90.07
11099;BME280;12223;42.650;23.364;2023-04-08T07:29:18;94890.63;;;8.16;90.06
11099;BME280;12223;42.650;23.364;2023-04-08T07:31:45;94894.28;;;8.15;88.36
11099;BME280;12223;42.650;23.364;2023-04-08T07:34:12;94899.31;;;8.10;88.79
11099;BME280;12223;42.650;23.364;2023-04-08T07:36:39;94855.41;;;8.11;87.98
11099;BME280;12223;42.650;23.364;2023-04-08T07:39:05;94893.69;;;8.59;84.58
11099;BME280;12223;42.650;23.364;2023-04-08T07:41:32;94895.44;;;9.05;79.67
11099;BME280;12223;42.650;23.364;2023-04-08T07:43:59;94888.78;;;8.89;78.14
11099;BME280;12223;42.650;23.364;2023-04-08T07:46:27;94897.31;;;8.91;77.36
11099;BME280;12223;42.650;23.364;2023-04-08T07:48:54;94898.50;;;8.95;77.15
11099;BME280;12223;42.650;23.364;2023-04-08T07:51:21;94873.47;;;8.60;80.19
11099;BME280;12223;42.650;23.364;2023-04-08T07:53:48;94904.78;;;9.01;79.72
11099;BME280;12223;42.650;23.364;2023-04-08T07:56:15;94893.06;;;9.54;76.25
11099;BME280;12223;42.650;23.364;2023-04-08T07:58:45;94899.44;;;9.72;72.19
11099;BME280;12223;42.650;23.364;2023-04-08T08:01:16;94911.66;;;9.66;71.04
11099;BME280;12223;42.650;23.364;2023-04-08T08:03:45;94910.22;;;9.70;69.92
11099;BME280;12223;42.650;23.364;2023-04-08T08:06:12;94917.97;;;9.58;69.06
11099;BME280;12223;42.650;23.364;2023-04-08T08:08:39;94916.31;;;9.64;70.40
11099;BME280;12223;42.650;23.364;2023-04-08T08:11:06;94909.53;;;9.81;69.04
11099;BME280;12223;42.650;23.364;2023-04-08T08:13:33;94921.81;;;10.00;67.50
11099;BME280;12223;42.650;23.364;2023-04-08T08:16:00;94916.91;;;10.11;66.18
11099;BME280;12223;42.650;23.364;2023-04-08T08:18:26;94916.56;;;10.32;66.18
11099;BME280;12223;42.650;23.364;2023-04-08T08:20:54;94917.88;;;10.16;63.15
11099;BME280;12223;42.650;23.364;2023-04-08T08:23:21;94916.75;;;10.37;63.43
11099;BME280;12223;42.650;23.364;2023-04-08T08:25:48;94922.16;;;9.79;63.31
11099;BME280;12223;42.650;23.364;2023-04-08T08:28:15;94922.31;;;10.22;62.71
11099;BME280;12223;42.650;23.364;2023-04-08T08:30:42;94910.53;;;10.49;62.09
11099;BME280;12223;42.650;23.364;2023-04-08T08:33:08;94917.94;;;10.66;60.93
11099;BME280;12223;42.650;23.364;2023-04-08T08:35:35;94924.44;;;10.38;63.31
11099;BME280;12223;42.650;23.364;2023-04-08T08:38:04;94917.22;;;10.52;67.07
11099;BME280;12223;42.650;23.364;2023-04-08T08:40:30;94928.25;;;10.49;68.09
11099;BME280;12223;42.650;23.364;2023-04-08T08:42:58;94925.38;;;10.13;69.80
11099;BME280;12223;42.650;23.364;2023-04-08T08:45:26;94921.66;;;10.58;68.72
11099;BME280;12223;42.650;23.364;2023-04-08T08:47:52;94919.91;;;10.45;68.00
11099;BME280;12223;42.650;23.364;2023-04-08T08:50:19;94909.22;;;10.65;68.10
11099;BME280;12223;42.650;23.364;2023-04-08T08:52:50;94924.22;;;10.40;69.46
11099;BME280;12223;42.650;23.364;2023-04-08T08:55:19;94918.75;;;10.03;71.66
11099;BME280;12223;42.650;23.364;2023-04-08T08:57:49;94921.94;;;10.12;70.68
11099;BME280;12223;42.650;23.364;2023-04-08T09:00:16;94932.09;;;10.15;72.67
11099;BME280;12223;42.650;23.364;2023-04-08T09:02:43;94934.13;;;10.13;73.90
11099;BME280;12223;42.650;23.364;2023-04-08T09:05:10;94924.06;;;9.97;76.08
11099;BME280;12223;42.650;23.364;2023-04-08T09:07:37;94922.38;;;9.71;76.88
11099;BME280;12223;42.650;23.364;2023-04-08T09:10:06;94921.78;;;9.69;77.46
11099;BME280;12223;42.650;23.364;2023-04-08T09:12:35;94930.47;;;10.14;77.21
11099;BME280;12223;42.650;23.364;2023-04-08T09:15:18;94940.41;;;10.19;76.01
11099;BME280;12223;42.650;23.364;2023-04-08T09:17:45;94897.75;;;10.22;73.68
11099;BME280;12223;42.650;23.364;2023-04-08T09:20:14;94934.38;;;10.93;71.45
11099;BME280;12223;42.650;23.364;2023-04-08T09:22:57;94927.03;;;10.45;65.84
11099;BME280;12223;42.650;23.364;2023-04-08T09:25:25;94927.03;;;10.70;65.41
11099;BME280;12223;42.650;23.364;2023-04-08T09:27:54;94920.81;;;10.33;70.26
11099;BME280;12223;42.650;23.364;2023-04-08T09:30:25;94931.34;;;9.57;73.98
11099;BME280;12223;42.650;23.364;2023-04-08T09:32:54;94915.75;;;9.93;77.61
11099;BME280;12223;42.650;23.364;2023-04-08T09:35:21;94924.72;;;9.41;79.44
11099;BME280;12223;42.650;23.364;2023-04-08T09:37:49;94916.56;;;9.94;80.71
11099;BME280;12223;42.650;23.364;2023-04-08T09:40:16;94921.28;;;10.30;77.39
11099;BME280;12223;42.650;23.364;2023-04-08T09:42:45;94909.63;;;10.37;73.93
11099;BME280;12223;42.650;23.364;2023-04-08T09:45:15;94910.06;;;10.34;70.65
11099;BME280;12223;42.650;23.364;2023-04-08T09:50:39;94915.22;;;10.97;66.96
11099;BME280;12223;42.650;23.364;2023-04-08T09:53:12;94902.97;;;10.60;66.11
11099;BME280;12223;42.650;23.364;2023-04-08T09:55:40;94920.03;;;11.25;63.61
11099;BME280;12223;42.650;23.364;2023-04-08T09:58:13;94899.72;;;10.58;69.54
11099;BME280;12223;42.650;23.364;2023-04-08T10:00:47;94885.88;;;9.99;71.87
11099;BME280;12223;42.650;23.364;2023-04-08T10:03:25;94896.19;;;10.07;73.95
11099;BME280;12223;42.650;23.364;2023-04-08T10:05:53;94886.31;;;10.34;72.65
11099;BME280;12223;42.650;23.364;2023-04-08T10:08:21;94890.50;;;10.17;71.75
11099;BME280;12223;42.650;23.364;2023-04-08T10:10:49;94896.63;;;10.04;74.11
11099;BME280;12223;42.650;23.364;2023-04-08T10:13:16;94885.84;;;10.06;75.22
11099;BME280;12223;42.650;23.364;2023-04-08T10:15:44;94891.19;;;10.31;73.05
11099;BME280;12223;42.650;23.364;2023-04-08T10:18:31;94889.50;;;10.43;72.97
11099;BME280;12223;42.650;23.364;2023-04-08T10:20:59;94880.00;;;10.35;71.58
11099;BME280;12223;42.650;23.364;2023-04-08T10:23:59;94888.59;;;10.56;69.76
11099;BME280;12223;42.650;23.364;2023-04-08T10:26:37;94869.38;;;10.67;67.20
11099;BME280;12223;42.650;23.364;2023-04-08T10:32:26;94896.69;;;10.79;67.05
11099;BME280;12223;42.650;23.364;2023-04-08T10:34:54;94867.59;;;11.04;66.05
11099;BME280;12223;42.650;23.364;2023-04-08T10:37:22;94886.22;;;11.09;65.17
11099;BME280;12223;42.650;23.364;2023-04-08T10:39:49;94860.25;;;11.42;63.18
11099;BME280;12223;42.650;23.364;2023-04-08T10:42:17;94870.91;;;11.65;63.47
11099;BME280;12223;42.650;23.364;2023-04-08T10:44:44;94876.72;;;11.92;61.62
11099;BME280;12223;42.650;23.364;2023-04-08T10:47:13;94869.19;;;11.41;60.42
11099;BME280;12223;42.650;23.364;2023-04-08T10:49:40;94864.72;;;11.23;64.69
11099;BME280;12223;42.650;23.364;2023-04-08T10:52:08;94856.94;;;11.28;64.43
11099;BME280;12223;42.650;23.364;2023-04-08T10:54:35;94856.06;;;11.16;63.39
11099;BME280;12223;42.650;23.364;2023-04-08T10:57:03;94863.03;;;11.11;62.69
11099;BME280;12223;42.650;23.364;2023-04-08T10:59:31;94857.53;;;11.12;64.15
11099;BME280;12223;42.650;23.364;2023-04-08T11:01:58;94850.69;;;11.41;62.91
11099;BME280;12223;42.650;23.364;2023-04-08T11:04:27;94849.72;;;11.54;63.36
11099;BME280;12223;42.650;23.364;2023-04-08T11:06:53;94849.75;;;11.65;61.89
11099;BME280;12223;42.650;23.364;2023-04-08T11:09:20;94818.00;;;11.65;61.63
11099;BME280;12223;42.650;23.364;2023-04-08T11:11:47;94840.34;;;11.88;58.51
11099;BME280;12223;42.650;23.364;2023-04-08T11:14:14;94838.59;;;11.63;57.75
11099;BME280;12223;42.650;23.364;2023-04-08T11:16:44;94844.22;;;11.55;57.66
11099;BME280;12223;42.650;23.364;2023-04-08T11:19:12;94833.28;;;11.63;57.97
11099;BME280;12223;42.650;23.364;2023-04-08T11:21:41;94836.28;;;12.27;56.28
11099;BME280;12223;42.650;23.364;2023-04-08T11:24:11;94835.50;;;12.26;55.67
11099;BME280;12223;42.650;23.364;2023-04-08T11:26:38;94836.78;;;11.94;56.20
11099;BME280;12223;42.650;23.364;2023-04-08T11:29:08;94839.34;;;11.52;56.34
11099;BME280;12223;42.650;23.364;2023-04-08T11:31:37;94838.69;;;11.39;57.42
11099;BME280;12223;42.650;23.364;2023-04-08T11:34:04;94830.47;;;11.95;56.36
11099;BME280;12223;42.650;23.364;2023-04-08T11:36:30;94830.34;;;12.01;54.06
11099;BME280;12223;42.650;23.364;2023-04-08T11:39:05;94808.41;;;12.13;53.77
11099;BME280;12223;42.650;23.364;2023-04-08T11:41:36;94821.81;;;12.87;50.80
11099;BME280;12223;42.650;23.364;2023-04-08T11:44:03;94817.25;;;13.11;49.61
11099;BME280;12223;42.650;23.364;2023-04-08T11:46:31;94822.50;;;12.48;48.45
11099;BME280;12223;42.650;23.364;2023-04-08T11:49:00;94818.25;;;11.82;50.70
11099;BME280;12223;42.650;23.364;2023-04-08T11:51:27;94815.00;;;11.80;53.42
11099;BME280;12223;42.650;23.364;2023-04-08T11:53:54;94815.09;;;11.74;53.50
11099;BME280;12223;42.650;23.364;2023-04-08T11:56:24;94817.47;;;11.45;54.58
11099;BME280;12223;42.650;23.364;2023-04-08T11:58:53;94804.78;;;11.36;55.96
11099;BME280;12223;42.650;23.364;2023-04-08T12:01:20;94805.38;;;11.67;56.38
11099;BME280;12223;42.650;23.364;2023-04-08T12:03:57;94809.44;;;12.12;55.72
11099;BME280;12223;42.650;23.364;2023-04-08T12:06:24;94790.47;;;12.38;54.35
11099;BME280;12223;42.650;23.364;2023-04-08T12:08:53;94798.16;;;12.16;55.29
11099;BME280;12223;42.650;23.364;2023-04-08T12:11:20;94793.22;;;12.89;54.02
11099;BME280;12223;42.650;23.364;2023-04-08T12:13:48;94785.38;;;12.71;53.89
11099;BME280;12223;42.650;23.364;2023-04-08T12:16:17;94791.59;;;12.65;53.13
11099;BME280;12223;42.650;23.364;2023-04-08T12:18:44;94787.66;;;12.09;53.62
11099;BME280;12223;42.650;23.364;2023-04-08T12:21:11;94803.03;;;11.89;52.89
11099;BME280;12223;42.650;23.364;2023-04-08T12:23:38;94795.81;;;11.66;52.36
11099;BME280;12223;42.650;23.364;2023-04-08T12:26:05;94794.00;;;11.67;52.61
11099;BME280;12223;42.650;23.364;2023-04-08T12:28:32;94793.88;;;12.03;54.31
11099;BME280;12223;42.650;23.364;2023-04-08T12:31:01;94791.03;;;12.28;54.12
11099;BME280;12223;42.650;23.364;2023-04-08T12:33:28;94777.00;;;11.45;53.08
11099;BME280;12223;42.650;23.364;2023-04-08T12:35:55;94784.63;;;11.53;54.92
11099;BME280;12223;42.650;23.364;2023-04-08T12:38:23;94779.97;;;11.66;54.32
11099;BME280;12223;42.650;23.364;2023-04-08T12:40:50;94769.66;;;11.77;54.41
11099;BME280;12223;42.650;23.364;2023-04-08T12:43:17;94768.44;;;11.91;54.51
11099;BME280;12223;42.650;23.364;2023-04-08T12:45:44;94766.84;;;12.13;55.10
11099;BME280;12223;42.650;23.364;2023-04-08T12:48:12;94768.94;;;12.34;54.51
11099;BME280;12223;42.650;23.364;2023-04-08T12:50:39;94760.06;;;12.40;53.77
11099;BME280;12223;42.650;23.364;2023-04-08T12:53:06;94774.81;;;12.60;54.95
11099;BME280;12223;42.650;23.364;2023-04-08T12:55:32;94778.56;;;11.94;54.87
11099;BME280;12223;42.650;23.364;2023-04-08T12:57:59;94769.59;;;11.65;58.20
11099;BME280;12223;42.650;23.364;2023-04-08T13:00:26;94771.09;;;11.31;60.51
11099;BME280;12223;42.650;23.364;2023-04-08T13:02:53;94766.63;;;11.13;59.88
11099;BME280;12223;42.650;23.364;2023-04-08T13:05:21;94763.84;;;11.38;59.93
11099;BME280;12223;42.650;23.364;2023-04-08T13:07:48;94757.16;;;11.65;59.01
11099;BME280;12223;42.650;23.364;2023-04-08T13:10:15;94755.34;;;11.66;57.83
11099;BME280;12223;42.650;23.364;2023-04-08T13:12:42;94763.00;;;11.44;58.66
11099;BME280;12223;42.650;23.364;2023-04-08T13:15:09;94758.69;;;11.73;57.26
11099;BME280;12223;42.650;23.364;2023-04-08T13:17:36;94765.66;;;11.86;56.84
11099;BME280;12223;42.650;23.364;2023-04-08T13:20:04;94757.59;;;11.81;55.84
11099;BME280;12223;42.650;23.364;2023-04-08T13:22:35;94767.53;;;11.67;56.71
11099;BME280;12223;42.650;23.364;2023-04-08T13:25:01;94767.81;;;11.47;57.50